Disclaimer

Please do not use the information listed here in-flight or in-navigation, as they are not provided to us by the airports but are provided by volunteers, so they might be outdated.

Search


Regions


Airport information page

Radio informations:
Tower (TWR) - 119.5 MHz
PMSV METRO - 344.6 MHz
WING OPS - 308.6 MHz
Ground (GND) - 133.75 MHz
Clearance delivery - 128.025 MHz
Approach/Departure (APP/DEP) - 120.6 MHz

Airport informations:
Latitude: 44° 59' 04.00" N
Longitude: 064° 55' 01.00" W
Elevation: 92 feet - 28 meters
Operating hours: 24 hour operations
Operating agency: Military
Timezone: UTC-4(-3DT) - Second Sunday in March at 0200 to first Sunday in November at 0200 local time (Exception Arizona and that portion of Indiana in the Eastern Time Zone)
Fuel: JP-4, Wide cut turbine fuel MIL Spec T-5624

Runway information:
08/26 - 8000 x 200 feet< - >2438 x 61 meters
12/30 - 8000 x 200 feet< - >2438 x 61 meters

Recent METARs:
CYZX 181700Z 27009KT 15SM SCT035 00/M07 A3031 RMK CU4 SLP265
CYZX 181700Z 27009KT 15SM SCT035 00/M07 A3031 RMK CU4 SLP265
CYZX 181800Z 27009KT 15SM BKN035 00/M07 A3030 RMK CU6 SLP263

Airport on the map: